Belize City, Belize

8:47 PM CST on March 06, 2015 (GMT -0600)
Astrum Helicopters - Cisco Base | Change Station
CLOSE
Current Station
Personal Weather Station
Location: Belize City, BZ
Elevation: 3 ft
Nearby Weather Stations

Elev 3 ft 17.50 °N, 88.23 °W | Updated 5 seconds ago

Partly Cloudy
Partly Cloudy
79.2 °F
Feels Like 83 °F
N
4.0
Wind Variable Wind from East
Gusts 13.0 mph

Today
High -- | Low -- °F
--% Chance of Precip.
Yesterday
High -- | Low -- °F
Precip. -- in
6:07 AM 6:00 PM
Full, 98% visible
Pressure 30.10 in
Visibility 6.2 miles
Clouds Few 1900 ft
Heat Index 83 °F
Dew Point 73 °F
Humidity 81%
Rainfall in
Snow Depth Not available.
UV 0 out of 12
Pollen Not available.
Air Quality Not available.
Flu Activity Not available.
METAR MZBZ 070200Z 09007KT 9999 FEW019 26/23 A3010 Q1019 NOSIG

More Conditions Fewer Conditions

Pressure 30.10 in
Visibility 6.2 miles
Clouds Few 1900 ft
Heat Index 83 °F
Dew Point 73 °F
Humidity 81%
Rainfall in
Snow Depth Not available.
UV 0 out of 12
Pollen Not available.
Air Quality Not available.
Flu Activity Not available.
METAR MZBZ 070200Z 09007KT 9999 FEW019 26/23 A3010 Q1019 NOSIG

More Conditions Fewer Conditions

10-Day Weather Forecast

Almanac

Astronomy

Mar. 06, 2015 Rise Set
Actual Time
Civil Twilight
Nautical Twilight
Astronomical Twilight
Moon
Length of Visible Light
Length of Day
Tomorrow will be .
, % of the Moon is Illuminated

Today's Extremes

Country Highs Country Lows

Community

WunderPhotos

Upload Photos

1,803,501 photos uploaded!

WunderBlogs® & News

Nearby

Air Quality

  Air Quality AQ Index Pollutant
Not available.

Snow Depth

Station Depth Elevation

Earthquake Activity

City Distance Mag. Time & Date
Minimum magnitude displayed is 2.5.

Coastal Water Temperatures

Place Temperature

Nearby Weather Stations